sensor_id;sensor_type;location;lat;lon;timestamp;pressure;altitude;pressure_sealevel;temperature;humidity
59531;BME280;45349;48.692;8.186;2022-07-11T00:02:20;99330.28;;;13.86;76.05
59531;BME280;45349;48.692;8.186;2022-07-11T00:04:47;99333.44;;;13.90;76.06
59531;BME280;45349;48.692;8.186;2022-07-11T00:07:15;99325.28;;;14.01;75.71
59531;BME280;45349;48.692;8.186;2022-07-11T00:09:43;99330.53;;;14.01;75.79
59531;BME280;45349;48.692;8.186;2022-07-11T00:12:11;99318.22;;;14.01;75.63
59531;BME280;45349;48.692;8.186;2022-07-11T00:14:38;99317.88;;;13.96;76.10
59531;BME280;45349;48.692;8.186;2022-07-11T00:17:06;99314.44;;;13.96;76.56
59531;BME280;45349;48.692;8.186;2022-07-11T00:19:33;99318.34;;;13.92;76.71
59531;BME280;45349;48.692;8.186;2022-07-11T00:22:01;99312.25;;;13.91;76.96
59531;BME280;45349;48.692;8.186;2022-07-11T00:24:29;99310.31;;;13.93;76.93
59531;BME280;45349;48.692;8.186;2022-07-11T00:26:56;99301.03;;;14.07;76.36
59531;BME280;45349;48.692;8.186;2022-07-11T00:29:23;99312.31;;;13.99;76.41
59531;BME280;45349;48.692;8.186;2022-07-11T00:31:50;99301.00;;;13.99;76.35
59531;BME280;45349;48.692;8.186;2022-07-11T00:34:17;99303.41;;;13.92;76.90
59531;BME280;45349;48.692;8.186;2022-07-11T00:36:44;99301.78;;;13.91;77.18
59531;BME280;45349;48.692;8.186;2022-07-11T00:39:12;99307.63;;;13.85;77.78
59531;BME280;45349;48.692;8.186;2022-07-11T00:41:40;99303.00;;;13.79;78.24
59531;BME280;45349;48.692;8.186;2022-07-11T00:44:08;99296.59;;;13.73;78.72
59531;BME280;45349;48.692;8.186;2022-07-11T00:46:34;99292.19;;;13.73;78.75
59531;BME280;45349;48.692;8.186;2022-07-11T00:49:02;99291.22;;;13.75;79.23
59531;BME280;45349;48.692;8.186;2022-07-11T00:51:30;99290.72;;;13.79;79.15
59531;BME280;45349;48.692;8.186;2022-07-11T00:53:58;99297.25;;;13.75;78.24
59531;BME280;45349;48.692;8.186;2022-07-11T00:56:27;99292.63;;;13.69;79.95
59531;BME280;45349;48.692;8.186;2022-07-11T00:58:57;99299.16;;;13.65;79.77
59531;BME280;45349;48.692;8.186;2022-07-11T01:01:25;99297.81;;;13.61;80.25
59531;BME280;45349;48.692;8.186;2022-07-11T01:03:52;99289.91;;;13.52;80.51
59531;BME280;45349;48.692;8.186;2022-07-11T01:06:38;99292.00;;;13.49;80.82
59531;BME280;45349;48.692;8.186;2022-07-11T01:09:05;99292.47;;;13.44;81.55
59531;BME280;45349;48.692;8.186;2022-07-11T01:11:32;99286.63;;;13.32;81.93
59531;BME280;45349;48.692;8.186;2022-07-11T01:14:00;99283.75;;;13.25;82.20
59531;BME280;45349;48.692;8.186;2022-07-11T01:16:27;99281.31;;;13.24;81.92
59531;BME280;45349;48.692;8.186;2022-07-11T01:18:56;99286.34;;;13.17;82.88
59531;BME280;45349;48.692;8.186;2022-07-11T01:21:25;99283.34;;;13.12;83.42
59531;BME280;45349;48.692;8.186;2022-07-11T01:23:56;99279.75;;;13.13;82.85
59531;BME280;45349;48.692;8.186;2022-07-11T01:26:23;99274.94;;;13.08;83.36
59531;BME280;45349;48.692;8.186;2022-07-11T01:28:51;99279.22;;;13.09;84.18
59531;BME280;45349;48.692;8.186;2022-07-11T01:31:19;99269.03;;;13.06;83.71
59531;BME280;45349;48.692;8.186;2022-07-11T01:34:05;99271.16;;;13.03;83.84
59531;BME280;45349;48.692;8.186;2022-07-11T01:36:32;99269.34;;;13.03;84.16
59531;BME280;45349;48.692;8.186;2022-07-11T01:39:00;99264.16;;;13.11;84.65
59531;BME280;45349;48.692;8.186;2022-07-11T01:41:27;99263.88;;;13.14;84.91
59531;BME280;45349;48.692;8.186;2022-07-11T01:43:54;99268.81;;;13.18;85.14
59531;BME280;45349;48.692;8.186;2022-07-11T01:46:21;99262.28;;;13.22;84.17
59531;BME280;45349;48.692;8.186;2022-07-11T01:48:49;99260.03;;;13.27;84.26
59531;BME280;45349;48.692;8.186;2022-07-11T01:51:15;99260.84;;;13.27;84.02
59531;BME280;45349;48.692;8.186;2022-07-11T01:53:42;99257.78;;;13.32;84.30
59531;BME280;45349;48.692;8.186;2022-07-11T01:56:29;99266.97;;;13.36;84.68
59531;BME280;45349;48.692;8.186;2022-07-11T01:58:59;99256.31;;;13.38;84.57
59531;BME280;45349;48.692;8.186;2022-07-11T02:01:26;99253.03;;;13.54;83.59
59531;BME280;45349;48.692;8.186;2022-07-11T02:03:53;99260.00;;;13.45;83.49
59531;BME280;45349;48.692;8.186;2022-07-11T02:06:20;99256.88;;;13.41;83.52
59531;BME280;45349;48.692;8.186;2022-07-11T02:08:47;99258.28;;;13.36;83.44
59531;BME280;45349;48.692;8.186;2022-07-11T02:11:14;99259.25;;;13.35;83.99
59531;BME280;45349;48.692;8.186;2022-07-11T02:13:42;99258.06;;;13.29;84.55
59531;BME280;45349;48.692;8.186;2022-07-11T02:16:10;99255.09;;;13.24;84.98
59531;BME280;45349;48.692;8.186;2022-07-11T02:18:37;99257.34;;;13.19;84.51
59531;BME280;45349;48.692;8.186;2022-07-11T02:21:22;99257.34;;;13.19;85.41
59531;BME280;45349;48.692;8.186;2022-07-11T02:23:50;99259.97;;;13.19;86.06
59531;BME280;45349;48.692;8.186;2022-07-11T02:26:18;99254.13;;;13.25;85.73
59531;BME280;45349;48.692;8.186;2022-07-11T02:28:46;99249.25;;;13.30;85.54
59531;BME280;45349;48.692;8.186;2022-07-11T02:31:13;99246.69;;;13.38;85.74
59531;BME280;45349;48.692;8.186;2022-07-11T02:33:40;99253.78;;;13.46;85.51
59531;BME280;45349;48.692;8.186;2022-07-11T02:36:07;99254.00;;;13.53;85.49
59531;BME280;45349;48.692;8.186;2022-07-11T02:38:36;99261.09;;;13.61;85.34
59531;BME280;45349;48.692;8.186;2022-07-11T02:41:04;99257.53;;;13.70;84.20
59531;BME280;45349;48.692;8.186;2022-07-11T02:43:30;99259.06;;;13.72;84.59
59531;BME280;45349;48.692;8.186;2022-07-11T02:45:59;99247.28;;;13.77;84.47
59531;BME280;45349;48.692;8.186;2022-07-11T02:48:44;99249.25;;;13.83;84.04
59531;BME280;45349;48.692;8.186;2022-07-11T02:51:12;99255.78;;;13.79;83.59
59531;BME280;45349;48.692;8.186;2022-07-11T02:53:38;99246.28;;;13.78;84.22
59531;BME280;45349;48.692;8.186;2022-07-11T02:56:06;99250.88;;;13.76;84.43
59531;BME280;45349;48.692;8.186;2022-07-11T02:58:33;99251.53;;;13.78;84.08
59531;BME280;45349;48.692;8.186;2022-07-11T03:01:02;99255.31;;;13.83;85.53
59531;BME280;45349;48.692;8.186;2022-07-11T03:03:47;99254.66;;;13.81;84.88
59531;BME280;45349;48.692;8.186;2022-07-11T03:06:14;99258.25;;;13.80;85.06
59531;BME280;45349;48.692;8.186;2022-07-11T03:08:41;99256.44;;;13.81;85.70
59531;BME280;45349;48.692;8.186;2022-07-11T03:11:08;99259.91;;;13.81;85.62
59531;BME280;45349;48.692;8.186;2022-07-11T03:13:35;99252.53;;;13.85;85.83
59531;BME280;45349;48.692;8.186;2022-07-11T03:16:04;99255.00;;;13.86;86.09
59531;BME280;45349;48.692;8.186;2022-07-11T03:18:30;99257.31;;;13.90;85.67
59531;BME280;45349;48.692;8.186;2022-07-11T03:20:57;99257.69;;;13.95;85.70
59531;BME280;45349;48.692;8.186;2022-07-11T03:23:23;99259.00;;;13.99;85.52
59531;BME280;45349;48.692;8.186;2022-07-11T03:25:50;99255.91;;;14.03;85.81
59531;BME280;45349;48.692;8.186;2022-07-11T03:28:17;99257.56;;;14.13;86.26
59531;BME280;45349;48.692;8.186;2022-07-11T03:30:44;99262.38;;;14.17;85.55
59531;BME280;45349;48.692;8.186;2022-07-11T03:33:12;99257.47;;;14.23;85.40
59531;BME280;45349;48.692;8.186;2022-07-11T03:35:38;99252.06;;;14.32;85.11
59531;BME280;45349;48.692;8.186;2022-07-11T03:38:09;99262.09;;;14.37;85.01
59531;BME280;45349;48.692;8.186;2022-07-11T03:40:36;99253.88;;;14.40;85.25
59531;BME280;45349;48.692;8.186;2022-07-11T03:43:04;99252.91;;;14.41;85.28
59531;BME280;45349;48.692;8.186;2022-07-11T03:45:31;99259.16;;;14.49;85.34
59531;BME280;45349;48.692;8.186;2022-07-11T03:47:58;99260.00;;;14.49;85.59
59531;BME280;45349;48.692;8.186;2022-07-11T03:50:26;99266.56;;;14.53;85.25
59531;BME280;45349;48.692;8.186;2022-07-11T03:52:53;99256.72;;;14.55;85.03
59531;BME280;45349;48.692;8.186;2022-07-11T03:55:19;99253.59;;;14.60;84.48
59531;BME280;45349;48.692;8.186;2022-07-11T03:57:47;99257.22;;;14.67;85.05
59531;BME280;45349;48.692;8.186;2022-07-11T04:00:14;99251.69;;;14.70;84.99
59531;BME280;45349;48.692;8.186;2022-07-11T04:02:42;99256.47;;;14.75;84.71
59531;BME280;45349;48.692;8.186;2022-07-11T04:05:09;99255.97;;;14.80;84.46
59531;BME280;45349;48.692;8.186;2022-07-11T04:07:37;99257.63;;;14.81;84.31
59531;BME280;45349;48.692;8.186;2022-07-11T04:10:05;99253.03;;;14.83;84.50
59531;BME280;45349;48.692;8.186;2022-07-11T04:12:32;99248.56;;;14.91;83.84
59531;BME280;45349;48.692;8.186;2022-07-11T04:14:59;99248.91;;;14.88;83.80
59531;BME280;45349;48.692;8.186;2022-07-11T04:17:25;99249.41;;;14.92;83.50
59531;BME280;45349;48.692;8.186;2022-07-11T04:19:53;99243.66;;;14.97;83.78
59531;BME280;45349;48.692;8.186;2022-07-11T04:22:20;99252.19;;;14.99;83.65
59531;BME280;45349;48.692;8.186;2022-07-11T04:24:48;99249.09;;;15.03;83.07
59531;BME280;45349;48.692;8.186;2022-07-11T04:27:15;99240.88;;;15.07;83.35
59531;BME280;45349;48.692;8.186;2022-07-11T04:29:41;99244.63;;;15.12;83.66
59531;BME280;45349;48.692;8.186;2022-07-11T04:32:08;99237.72;;;15.19;83.10
59531;BME280;45349;48.692;8.186;2022-07-11T04:34:54;99237.25;;;15.24;82.61
59531;BME280;45349;48.692;8.186;2022-07-11T04:37:21;99234.44;;;15.26;82.30
59531;BME280;45349;48.692;8.186;2022-07-11T04:39:49;99231.81;;;15.26;82.29
59531;BME280;45349;48.692;8.186;2022-07-11T04:42:16;99241.00;;;15.22;82.57
59531;BME280;45349;48.692;8.186;2022-07-11T04:45:01;99245.47;;;15.13;82.65
59531;BME280;45349;48.692;8.186;2022-07-11T04:47:28;99234.44;;;15.09;82.80
59531;BME280;45349;48.692;8.186;2022-07-11T04:49:55;99246.47;;;15.03;82.76
59531;BME280;45349;48.692;8.186;2022-07-11T04:52:21;99246.94;;;14.90;82.86
59531;BME280;45349;48.692;8.186;2022-07-11T04:54:53;99251.22;;;14.83;83.26
59531;BME280;45349;48.692;8.186;2022-07-11T04:57:20;99247.59;;;14.76;83.36
59531;BME280;45349;48.692;8.186;2022-07-11T04:59:47;99253.31;;;14.71;83.42
59531;BME280;45349;48.692;8.186;2022-07-11T05:02:14;99257.56;;;14.64;83.46
59531;BME280;45349;48.692;8.186;2022-07-11T05:04:43;99251.97;;;14.59;83.73
59531;BME280;45349;48.692;8.186;2022-07-11T05:07:09;99248.84;;;14.55;84.28
59531;BME280;45349;48.692;8.186;2022-07-11T05:09:37;99254.25;;;14.54;84.90
59531;BME280;45349;48.692;8.186;2022-07-11T05:12:06;99247.53;;;14.51;84.83
59531;BME280;45349;48.692;8.186;2022-07-11T05:14:33;99255.56;;;14.50;84.88
59531;BME280;45349;48.692;8.186;2022-07-11T05:17:00;99254.44;;;14.52;85.85
59531;BME280;45349;48.692;8.186;2022-07-11T05:19:27;99250.81;;;14.53;85.69
59531;BME280;45349;48.692;8.186;2022-07-11T05:21:54;99256.22;;;14.52;85.62
59531;BME280;45349;48.692;8.186;2022-07-11T05:24:21;99256.38;;;14.50;85.71
59531;BME280;45349;48.692;8.186;2022-07-11T05:26:47;99259.69;;;14.52;85.71
59531;BME280;45349;48.692;8.186;2022-07-11T05:29:15;99256.38;;;14.50;86.05
59531;BME280;45349;48.692;8.186;2022-07-11T05:31:42;99256.72;;;14.47;85.83
59531;BME280;45349;48.692;8.186;2022-07-11T05:34:16;99256.53;;;14.49;86.16
59531;BME280;45349;48.692;8.186;2022-07-11T05:36:43;99250.97;;;14.52;86.10
59531;BME280;45349;48.692;8.186;2022-07-11T05:39:10;99251.63;;;14.54;86.05
59531;BME280;45349;48.692;8.186;2022-07-11T05:41:37;99259.19;;;14.57;86.00
59531;BME280;45349;48.692;8.186;2022-07-11T05:44:03;99257.06;;;14.60;86.03
59531;BME280;45349;48.692;8.186;2022-07-11T05:46:32;99261.69;;;14.67;85.60
59531;BME280;45349;48.692;8.186;2022-07-11T05:48:58;99260.25;;;14.81;85.39
59531;BME280;45349;48.692;8.186;2022-07-11T05:51:25;99261.56;;;14.93;84.83
59531;BME280;45349;48.692;8.186;2022-07-11T05:53:52;99264.22;;;15.18;84.29
59531;BME280;45349;48.692;8.186;2022-07-11T05:56:19;99266.78;;;15.43;82.84
59531;BME280;45349;48.692;8.186;2022-07-11T05:58:46;99263.97;;;15.69;81.62
59531;BME280;45349;48.692;8.186;2022-07-11T06:01:12;99265.72;;;15.93;80.14
59531;BME280;45349;48.692;8.186;2022-07-11T06:03:41;99266.78;;;16.16;78.70
59531;BME280;45349;48.692;8.186;2022-07-11T06:06:08;99271.34;;;16.30;77.38
59531;BME280;45349;48.692;8.186;2022-07-11T06:08:35;99277.19;;;16.49;77.02
59531;BME280;45349;48.692;8.186;2022-07-11T06:11:07;99270.94;;;16.73;75.55
59531;BME280;45349;48.692;8.186;2022-07-11T06:13:35;99276.94;;;16.90;74.87
59531;BME280;45349;48.692;8.186;2022-07-11T06:16:03;99276.66;;;17.08;73.40
59531;BME280;45349;48.692;8.186;2022-07-11T06:18:30;99275.53;;;17.26;73.44
59531;BME280;45349;48.692;8.186;2022-07-11T06:20:58;99287.94;;;17.40;73.02
59531;BME280;45349;48.692;8.186;2022-07-11T06:23:25;99281.47;;;17.58;73.18
59531;BME280;45349;48.692;8.186;2022-07-11T06:25:53;99282.13;;;17.75;71.68
59531;BME280;45349;48.692;8.186;2022-07-11T06:28:20;99276.69;;;17.92;70.80
59531;BME280;45349;48.692;8.186;2022-07-11T06:30:46;99279.06;;;18.02;69.70
59531;BME280;45349;48.692;8.186;2022-07-11T06:33:15;99283.78;;;18.06;67.68
59531;BME280;45349;48.692;8.186;2022-07-11T06:35:41;99278.13;;;18.24;65.67
59531;BME280;45349;48.692;8.186;2022-07-11T06:38:09;99279.09;;;18.38;64.33
59531;BME280;45349;48.692;8.186;2022-07-11T06:40:36;99280.19;;;18.44;62.73
59531;BME280;45349;48.692;8.186;2022-07-11T06:43:03;99283.03;;;18.64;63.55
59531;BME280;45349;48.692;8.186;2022-07-11T06:45:50;99277.69;;;18.79;61.96
59531;BME280;45349;48.692;8.186;2022-07-11T06:48:17;99277.44;;;18.74;60.95
59531;BME280;45349;48.692;8.186;2022-07-11T06:50:46;99281.06;;;18.88;60.97
59531;BME280;45349;48.692;8.186;2022-07-11T06:53:14;99284.59;;;18.95;60.31
59531;BME280;45349;48.692;8.186;2022-07-11T06:55:41;99279.19;;;19.03;59.88
59531;BME280;45349;48.692;8.186;2022-07-11T06:58:08;99280.88;;;19.11;59.97
59531;BME280;45349;48.692;8.186;2022-07-11T07:00:37;99273.53;;;19.07;59.58
59531;BME280;45349;48.692;8.186;2022-07-11T07:03:03;99275.63;;;19.18;59.19
59531;BME280;45349;48.692;8.186;2022-07-11T07:05:30;99279.53;;;19.22;59.26
59531;BME280;45349;48.692;8.186;2022-07-11T07:07:57;99275.63;;;19.18;58.84
59531;BME280;45349;48.692;8.186;2022-07-11T07:10:25;99273.06;;;19.25;58.38
59531;BME280;45349;48.692;8.186;2022-07-11T07:12:52;99280.47;;;19.36;58.25
59531;BME280;45349;48.692;8.186;2022-07-11T07:15:38;99277.00;;;19.36;58.26
59531;BME280;45349;48.692;8.186;2022-07-11T07:18:04;99278.06;;;19.41;57.50
59531;BME280;45349;48.692;8.186;2022-07-11T07:20:31;99276.81;;;19.37;57.92
59531;BME280;45349;48.692;8.186;2022-07-11T07:22:58;99276.69;;;19.52;57.90
59531;BME280;45349;48.692;8.186;2022-07-11T07:25:26;99273.56;;;19.70;56.98
59531;BME280;45349;48.692;8.186;2022-07-11T07:27:53;99271.50;;;19.66;56.53
59531;BME280;45349;48.692;8.186;2022-07-11T07:30:20;99276.91;;;19.86;56.42
59531;BME280;45349;48.692;8.186;2022-07-11T07:32:46;99278.03;;;19.98;55.88
59531;BME280;45349;48.692;8.186;2022-07-11T07:35:13;99268.03;;;19.94;55.29
59531;BME280;45349;48.692;8.186;2022-07-11T07:37:40;99274.75;;;19.96;54.47
59531;BME280;45349;48.692;8.186;2022-07-11T07:40:08;99276.22;;;20.05;54.67
59531;BME280;45349;48.692;8.186;2022-07-11T07:42:36;99273.94;;;19.96;54.88
59531;BME280;45349;48.692;8.186;2022-07-11T07:45:03;99273.19;;;20.09;55.19
59531;BME280;45349;48.692;8.186;2022-07-11T07:47:30;99262.03;;;20.27;55.02
59531;BME280;45349;48.692;8.186;2022-07-11T07:49:57;99268.22;;;20.41;52.62
59531;BME280;45349;48.692;8.186;2022-07-11T07:52:24;99264.53;;;20.42;53.61
59531;BME280;45349;48.692;8.186;2022-07-11T07:54:51;99263.34;;;20.58;52.14
59531;BME280;45349;48.692;8.186;2022-07-11T07:57:17;99265.81;;;20.66;51.19
59531;BME280;45349;48.692;8.186;2022-07-11T07:59:46;99268.88;;;20.63;49.31
59531;BME280;45349;48.692;8.186;2022-07-11T08:02:12;99268.03;;;20.56;50.20
59531;BME280;45349;48.692;8.186;2022-07-11T08:04:38;99276.56;;;20.44;47.87
59531;BME280;45349;48.692;8.186;2022-07-11T08:07:05;99275.53;;;20.39;47.93
59531;BME280;45349;48.692;8.186;2022-07-11T08:09:31;99271.31;;;20.58;47.30
59531;BME280;45349;48.692;8.186;2022-07-11T08:11:58;99274.38;;;20.75;47.06
59531;BME280;45349;48.692;8.186;2022-07-11T08:14:25;99264.38;;;20.77;46.43
59531;BME280;45349;48.692;8.186;2022-07-11T08:16:54;99269.97;;;20.96;46.11
59531;BME280;45349;48.692;8.186;2022-07-11T08:19:21;99274.88;;;21.19;46.15
59531;BME280;45349;48.692;8.186;2022-07-11T08:21:47;99265.06;;;21.26;44.82
59531;BME280;45349;48.692;8.186;2022-07-11T08:24:14;99277.53;;;21.39;45.03
59531;BME280;45349;48.692;8.186;2022-07-11T08:27:02;99267.91;;;21.51;44.52
59531;BME280;45349;48.692;8.186;2022-07-11T08:29:28;99283.03;;;21.71;45.39
59531;BME280;45349;48.692;8.186;2022-07-11T08:31:56;99264.41;;;21.78;44.70
59531;BME280;45349;48.692;8.186;2022-07-11T08:34:24;99270.88;;;22.02;44.04
59531;BME280;45349;48.692;8.186;2022-07-11T08:36:51;99265.78;;;22.01;43.32
59531;BME280;45349;48.692;8.186;2022-07-11T08:39:17;99262.56;;;21.85;43.96
59531;BME280;45349;48.692;8.186;2022-07-11T08:41:44;99268.69;;;21.79;44.36
59531;BME280;45349;48.692;8.186;2022-07-11T08:44:11;99266.19;;;21.91;44.29
59531;BME280;45349;48.692;8.186;2022-07-11T08:46:39;99263.50;;;22.11;43.20
59531;BME280;45349;48.692;8.186;2022-07-11T08:49:08;99267.66;;;21.80;43.29
59531;BME280;45349;48.692;8.186;2022-07-11T08:51:38;99271.47;;;22.04;43.42
59531;BME280;45349;48.692;8.186;2022-07-11T08:54:04;99263.38;;;21.79;43.14
59531;BME280;45349;48.692;8.186;2022-07-11T08:56:32;99253.19;;;21.62;43.88
59531;BME280;45349;48.692;8.186;2022-07-11T08:58:59;99251.50;;;21.81;45.45
59531;BME280;45349;48.692;8.186;2022-07-11T09:01:29;99257.88;;;21.74;44.06
59531;BME280;45349;48.692;8.186;2022-07-11T09:03:56;99253.97;;;21.83;44.39
59531;BME280;45349;48.692;8.186;2022-07-11T09:06:24;99246.19;;;21.88;43.75
59531;BME280;45349;48.692;8.186;2022-07-11T09:08:54;99247.91;;;22.15;43.12
59531;BME280;45349;48.692;8.186;2022-07-11T09:11:22;99249.19;;;22.51;42.87
59531;BME280;45349;48.692;8.186;2022-07-11T09:13:49;99245.78;;;22.76;43.43
59531;BME280;45349;48.692;8.186;2022-07-11T09:16:18;99243.22;;;23.13;42.37
59531;BME280;45349;48.692;8.186;2022-07-11T09:18:45;99239.03;;;22.98;42.19
59531;BME280;45349;48.692;8.186;2022-07-11T09:21:13;99256.38;;;23.33;41.90
59531;BME280;45349;48.692;8.186;2022-07-11T09:24:01;99252.78;;;22.95;41.64
59531;BME280;45349;48.692;8.186;2022-07-11T09:26:47;99264.75;;;22.47;43.29
59531;BME280;45349;48.692;8.186;2022-07-11T09:29:15;99272.25;;;22.96;42.90
59531;BME280;45349;48.692;8.186;2022-07-11T09:31:43;99256.53;;;22.88;42.20
59531;BME280;45349;48.692;8.186;2022-07-11T09:34:12;99261.16;;;22.67;42.79
59531;BME280;45349;48.692;8.186;2022-07-11T09:36:42;99259.47;;;22.34;44.35
59531;BME280;45349;48.692;8.186;2022-07-11T09:39:13;99266.34;;;22.09;44.39
59531;BME280;45349;48.692;8.186;2022-07-11T09:41:42;99256.19;;;21.93;44.85
59531;BME280;45349;48.692;8.186;2022-07-11T09:44:11;99258.59;;;22.08;44.75
59531;BME280;45349;48.692;8.186;2022-07-11T09:46:38;99256.41;;;21.85;45.71
59531;BME280;45349;48.692;8.186;2022-07-11T09:49:06;99252.25;;;22.02;45.51
59531;BME280;45349;48.692;8.186;2022-07-11T09:51:33;99261.41;;;22.59;45.11
59531;BME280;45349;48.692;8.186;2022-07-11T09:54:01;99253.19;;;22.67;44.70
59531;BME280;45349;48.692;8.186;2022-07-11T09:56:50;99253.59;;;22.70;44.71
59531;BME280;45349;48.692;8.186;2022-07-11T09:59:18;99252.13;;;22.75;45.59
59531;BME280;45349;48.692;8.186;2022-07-11T10:01:45;99248.19;;;21.93;47.64
59531;BME280;45349;48.692;8.186;2022-07-11T10:04:11;99244.34;;;22.34;47.66
59531;BME280;45349;48.692;8.186;2022-07-11T10:06:38;99247.25;;;22.26;47.26
59531;BME280;45349;48.692;8.186;2022-07-11T10:09:07;99249.53;;;22.22;47.78
59531;BME280;45349;48.692;8.186;2022-07-11T10:11:34;99253.78;;;22.69;48.53
59531;BME280;45349;48.692;8.186;2022-07-11T10:14:03;99248.28;;;22.96;46.10
59531;BME280;45349;48.692;8.186;2022-07-11T10:16:40;99262.78;;;23.00;46.08
59531;BME280;45349;48.692;8.186;2022-07-11T10:19:24;99259.69;;;23.03;44.51
59531;BME280;45349;48.692;8.186;2022-07-11T10:21:58;99256.25;;;22.70;45.33
59531;BME280;45349;48.692;8.186;2022-07-11T10:24:36;99267.34;;;22.93;45.74
59531;BME280;45349;48.692;8.186;2022-07-11T10:27:10;99261.09;;;23.06;44.80
59531;BME280;45349;48.692;8.186;2022-07-11T10:29:46;99252.97;;;23.26;46.65
59531;BME280;45349;48.692;8.186;2022-07-11T10:32:15;99253.06;;;23.38;44.57
59531;BME280;45349;48.692;8.186;2022-07-11T10:34:43;99243.25;;;23.57;44.15
59531;BME280;45349;48.692;8.186;2022-07-11T10:37:10;99251.44;;;23.37;43.28
59531;BME280;45349;48.692;8.186;2022-07-11T10:39:38;99242.63;;;23.36;43.40
59531;BME280;45349;48.692;8.186;2022-07-11T10:42:20;99249.69;;;23.49;45.02
59531;BME280;45349;48.692;8.186;2022-07-11T10:44:49;99242.16;;;23.65;44.75
59531;BME280;45349;48.692;8.186;2022-07-11T10:47:33;99239.69;;;23.63;44.17
59531;BME280;45349;48.692;8.186;2022-07-11T10:50:13;99237.00;;;23.44;43.72
59531;BME280;45349;48.692;8.186;2022-07-11T10:52:48;99249.63;;;23.74;43.65
59531;BME280;45349;48.692;8.186;2022-07-11T10:55:26;99236.09;;;23.76;43.36
59531;BME280;45349;48.692;8.186;2022-07-11T10:58:19;99245.91;;;23.94;43.57
59531;BME280;45349;48.692;8.186;2022-07-11T11:01:10;99248.31;;;24.02;43.50
59531;BME280;45349;48.692;8.186;2022-07-11T11:03:37;99251.13;;;24.08;42.14
59531;BME280;45349;48.692;8.186;2022-07-11T11:06:04;99244.34;;;23.86;42.49
59531;BME280;45349;48.692;8.186;2022-07-11T11:08:45;99242.06;;;24.09;43.27
59531;BME280;45349;48.692;8.186;2022-07-11T11:11:34;99244.34;;;23.86;41.91
59531;BME280;45349;48.692;8.186;2022-07-11T11:14:19;99242.50;;;23.87;42.27
59531;BME280;45349;48.692;8.186;2022-07-11T11:16:48;99242.81;;;23.97;42.35
59531;BME280;45349;48.692;8.186;2022-07-11T11:19:52;99253.31;;;23.92;44.13
59531;BME280;45349;48.692;8.186;2022-07-11T11:22:21;99241.03;;;23.91;43.12
59531;BME280;45349;48.692;8.186;2022-07-11T11:24:50;99251.84;;;24.15;43.60
59531;BME280;45349;48.692;8.186;2022-07-11T11:27:19;99249.16;;;23.96;43.42
59531;BME280;45349;48.692;8.186;2022-07-11T11:29:49;99234.53;;;24.06;43.44
59531;BME280;45349;48.692;8.186;2022-07-11T11:32:19;99221.63;;;24.33;42.74
59531;BME280;45349;48.692;8.186;2022-07-11T11:34:47;99224.78;;;24.42;42.41
59531;BME280;45349;48.692;8.186;2022-07-11T11:37:16;99218.00;;;24.58;43.04
59531;BME280;45349;48.692;8.186;2022-07-11T11:39:43;99224.56;;;24.43;42.86
59531;BME280;45349;48.692;8.186;2022-07-11T11:42:13;99218.72;;;24.65;41.90
59531;BME280;45349;48.692;8.186;2022-07-11T11:44:55;99227.41;;;24.60;41.77
59531;BME280;45349;48.692;8.186;2022-07-11T11:47:28;99224.16;;;24.28;43.56
59531;BME280;45349;48.692;8.186;2022-07-11T11:49:56;99221.47;;;24.46;41.67
59531;BME280;45349;48.692;8.186;2022-07-11T11:52:23;99212.16;;;24.37;42.00
59531;BME280;45349;48.692;8.186;2022-07-11T11:54:52;99208.81;;;24.54;42.32
59531;BME280;45349;48.692;8.186;2022-07-11T11:57:22;99218.94;;;24.21;42.93
59531;BME280;45349;48.692;8.186;2022-07-11T11:59:49;99226.06;;;24.09;42.79
59531;BME280;45349;48.692;8.186;2022-07-11T12:02:24;99211.00;;;24.45;42.26
59531;BME280;45349;48.692;8.186;2022-07-11T12:04:52;99209.94;;;24.34;42.31
59531;BME280;45349;48.692;8.186;2022-07-11T12:07:23;99198.94;;;24.42;41.72
59531;BME280;45349;48.692;8.186;2022-07-11T12:09:52;99203.97;;;24.62;42.42
59531;BME280;45349;48.692;8.186;2022-07-11T12:12:25;99203.13;;;24.50;41.40
59531;BME280;45349;48.692;8.186;2022-07-11T12:15:28;99186.19;;;24.44;40.84
59531;BME280;45349;48.692;8.186;2022-07-11T12:17:58;99185.81;;;24.41;41.26
59531;BME280;45349;48.692;8.186;2022-07-11T12:20:39;99195.22;;;24.31;42.52
59531;BME280;45349;48.692;8.186;2022-07-11T12:23:08;99192.56;;;24.43;41.99
59531;BME280;45349;48.692;8.186;2022-07-11T12:25:36;99200.44;;;24.81;42.36
59531;BME280;45349;48.692;8.186;2022-07-11T12:28:05;99212.03;;;24.98;40.87
59531;BME280;45349;48.692;8.186;2022-07-11T12:30:34;99210.84;;;24.40;40.73
59531;BME280;45349;48.692;8.186;2022-07-11T12:33:08;99200.59;;;24.55;41.33
59531;BME280;45349;48.692;8.186;2022-07-11T12:35:51;99190.91;;;24.73;41.31
59531;BME280;45349;48.692;8.186;2022-07-11T12:38:19;99195.22;;;24.98;41.19
59531;BME280;45349;48.692;8.186;2022-07-11T12:40:58;99204.16;;;25.15;40.70
59531;BME280;45349;48.692;8.186;2022-07-11T12:43:46;99191.59;;;25.40;41.76
59531;BME280;45349;48.692;8.186;2022-07-11T12:46:38;99206.81;;;25.27;40.69
59531;BME280;45349;48.692;8.186;2022-07-11T12:49:06;99191.72;;;25.33;40.09
59531;BME280;45349;48.692;8.186;2022-07-11T12:51:35;99191.06;;;24.90;41.05
59531;BME280;45349;48.692;8.186;2022-07-11T12:54:06;99190.00;;;25.03;40.64
59531;BME280;45349;48.692;8.186;2022-07-11T12:56:34;99184.06;;;25.01;41.11
59531;BME280;45349;48.692;8.186;2022-07-11T12:59:02;99182.56;;;25.29;40.61
59531;BME280;45349;48.692;8.186;2022-07-11T13:01:29;99177.69;;;25.26;40.30
59531;BME280;45349;48.692;8.186;2022-07-11T13:03:56;99180.69;;;25.29;40.28
59531;BME280;45349;48.692;8.186;2022-07-11T13:06:23;99174.97;;;25.49;39.37
59531;BME280;45349;48.692;8.186;2022-07-11T13:09:05;99171.78;;;25.76;39.75
59531;BME280;45349;48.692;8.186;2022-07-11T13:11:32;99184.59;;;26.03;39.70
59531;BME280;45349;48.692;8.186;2022-07-11T13:13:58;99183.59;;;26.21;39.09